KRKP/RKP METAR and TAF weather

Enter ICAO airport designator
Station Type Date Time Source
KRKP METAR 2020/07/10 21:53 UTC NOAA

KRKP 102153Z AUTO 15013KT 8SM CLR 32/26 A2999 RMK AO2 SLP156 T03220256


Station Type Date Time Source
KRKP Decoded METAR 2020/07/10 21:53 UTC NOAA

ROCKPORT ARANSAS COUNTY AIRPORT , TX, United States (KRKP) 28-05N 97-03W 6M
Jul 10, 2020 - 05:53 PM EDT / 2020.07.10 2153 UTC
Wind: from the SSE (150 degrees) at 15 MPH (13 KT):0
Visibility: 8 mile(s):0
Sky conditions: clear
Temperature: 90.0 F (32.2 C)
Heat index: 104.5 F (40.3 C):1
Dew Point: 78.1 F (25.6 C)
Relative Humidity: 68%
Pressure (altimeter): 29.99 in. Hg (1015 hPa)
ob: KRKP 102153Z AUTO 15013KT 8SM CLR 32/26 A2999 RMK AO2 SLP156 T03220256
cycle: 22

Station Type Date Time Source
KRKP TAF UTC NOAA

Error!

Example: see airport list